Terminal Aerodrome Forecast
Issued by NWS

Current Version | Previous Version | Text Only | Print | Product List | Glossary On
Versions: 1 2 3 4 5 6 7 8 9 10 11 12
189
FTUS44 KBMX 170539
TAFMGM
TAF
KMGM 170539Z 1706/1806 00000KT P6SM SCT150 BKN250
     FM171500 12004KT P6SM OVC040
     FM172100 09006KT 4SM -RA BR OVC025
     FM180000 09006KT 4SM -RA BR OVC015
     FM180200 05003KT 5SM BR OVC007=

USA.gov is the U.S. government's official web portal to all federal, state and local government web resources and services.